• Join FlightAware (Why Join?)
  • Login
  • US Flag 
07:26PM EDT


 

Airport Tracker/Info


-or-


 

Live Flight TrackerFlight Track Log ✈ FFT720 ✈ 24-Oct-2013 ✈ KDEN - KDCA

Flight Track Log - Related Links

Times and Time Zones

All times are in EDT time to prevent confusion due to time zone crossing. See the FFT720 flight status page for this flight to view local times or setup timezone preferences in your user account.

Time Position Orientation Groundspeed Altitude Reporting Facility
EDT Latitude Longitude Course Direction KTS MPH feet Rate Location/Type
06:51PM 39.8770 -104.6020 90° East 182 209 6,100  Level FlightAware
06:52PM 39.8770 -104.5600 90° East 210 242 6,900 960 Climbing FlightAware
06:52PM 39.8760 -104.5270 92° East 245 282 7,100 720 Climbing FlightAware
06:53PM 39.8760 -104.4920 90° East 273 314 7,500 1,800 Climbing FlightAware
06:53PM 39.8750 -104.4440 92° East 285 328 8,600 2,340 Climbing FlightAware
06:54PM 39.8750 -104.3920 90° East 299 344 9,700 1,500 Climbing FlightAware
06:55PM 39.8740 -104.2830 91° East 350 403 10,800 1,560 Climbing FlightAware
06:56PM 39.8730 -104.1840 91° East 367 422 12,400 2,040 Climbing FlightAware
06:56PM 39.8720 -104.0550 91° East 379 436 14,400 2,100 Climbing FlightAware
06:57PM 39.8720 -103.9310 90° East 388 447 16,400 1,980 Climbing FlightAware
06:58PM 39.8790 -103.8030 86° East 401 461 18,000 1,860 Climbing FlightAware
06:59PM 39.8940 -103.6470 83° East 405 466 20,100 1,860 Climbing FlightAware
07:00PM 39.9080 -103.5290 81° East 412 474 21,500 1,560 Climbing FlightAware
07:01PM 39.9210 -103.4100 82° East 422 486 22,600 1,500 Climbing FlightAware
07:02PM 39.9360 -103.2830 81° East 423 487 24,000 1,500 Climbing FlightAware
07:03PM 39.9520 -103.1410 82° East 429 494 25,300 1,320 Climbing FlightAware
07:04PM 39.9660 -103.0060 82° East 435 501 26,400 1,140 Climbing FlightAware
07:04PM 39.9810 -102.8700 82° East 445 512 27,300 900 Climbing FlightAware
07:05PM 39.9980 -102.7180 82° East 455 524 28,100 900 Climbing FlightAware
07:06PM 40.0060 -102.6380 83° East 459 528 28,600 1,020 Climbing FlightAware
07:07PM 40.0210 -102.4950 82° East 465 535 29,500 1,020 Climbing FlightAware
07:07PM 40.0330 -102.3870 82° East 464 534 30,200 780 Climbing FlightAware
07:08PM 40.0450 -102.2740 82° East 463 533 30,600 240 Climbing FlightAware
07:09PM 40.0540 -102.1890 82° East 463 533 30,600  Level FlightAware
07:10PM 40.0660 -102.0760 82° East 463 533 30,600  Level FlightAware
07:10PM 40.0750 -101.9880 82° East 463 533 30,600  Level FlightAware
07:11PM 40.0870 -101.8750 82° East 463 533 30,600  Level FlightAware
07:12PM 40.1050 -101.7080 82° East 463 533 30,600  Level FlightAware
07:13PM 40.1140 -101.6230 82° East 463 533 30,600  Level FlightAware
07:14PM 40.1270 -101.5080 82° East 463 533 30,600  Level FlightAware
07:14PM 40.1360 -101.4230 82° East 463 533 30,600  Level FlightAware
07:15PM 40.1510 -101.2810 82° East 463 533 30,600  Level FlightAware
07:16PM 40.1630 -101.1660 82° East 463 533 30,600  Level FlightAware
07:17PM 40.1790 -101.0220 82° East 463 533 30,600  Level FlightAware
07:18PM 40.1880 -100.9340 82° East 463 533 30,600 3,000 Level FlightAware
07:18PM 40.2033 -100.6067 82° East 453 521 35,000 2,280 Climbing Denver Center
07:20PM 40.2189 -100.4256 84° East 452 520 35,000  Level Denver Center
07:21PM 40.2325 -100.2689 83° East 454 522 35,000  Level Denver Center
07:22PM 40.2481 -100.0861 84° East 455 524 35,000  Level Denver Center
07:23PM 40.2617 -99.9306 83° East 452 520 35,000  Level Denver Center
07:24PM 40.2742 -99.7742 84° East 453 521 35,000  Level Denver Center
07:25PM 40.2894 -99.5764 84° East 455 524 35,000  Level Denver Center
07:26PM 40.3017 -99.4125 84° East 455 524 35,000  Level Denver Center
07:31PM 40.3730 -98.4590 84° East 460 529 35,000  Level FlightAware
07:32PM 40.3830 -98.3390 84° East 460 529 35,000  Level FlightAware
07:33PM 40.3920 -98.1760 86° East 462 532 35,000  Level FlightAware
07:34PM 40.4040 -98.0060 85° East 464 534 35,000  Level FlightAware
07:35PM 40.4110 -97.8940 85° East 464 534 35,000  Level FlightAware
07:36PM 40.4210 -97.7300 85° East 462 532 35,000  Level FlightAware
07:36PM 40.4270 -97.6320 85° East 463 533 35,000  Level FlightAware
07:37PM 40.4360 -97.4860 85° East 465 535 35,000  Level FlightAware
07:38PM 40.4460 -97.3270 85° East 468 539 35,000  Level FlightAware
07:39PM 40.4550 -97.1680 86° East 469 540 35,000  Level FlightAware
07:40PM 40.4620 -97.0510 85° East 468 539 35,000  Level FlightAware
07:41PM 40.4700 -96.9150 86° East 469 540 35,000  Level FlightAware
07:41PM 40.4780 -96.7670 86° East 470 541 35,000  Level FlightAware
07:42PM 40.4820 -96.6920 86° East 472 543 35,000  Level FlightAware
07:43PM 40.4900 -96.5520 86° East 475 547 35,000  Level FlightAware
07:44PM 40.4970 -96.4040 86° East 478 550 35,000 60 Level FlightAware
07:44PM 40.5040 -96.2750 86° East 478 550 35,100  Climbing FlightAware
07:45PM 40.5120 -96.1050 86° East 477 549 35,000 -120 Descending FlightAware
07:46PM 40.5160 -96.0230 86° East 476 548 35,000  Level FlightAware
07:47PM 40.5230 -95.8740 86° East 474 545 35,000  Level FlightAware
07:48PM 40.5310 -95.7050 86° East 470 541 35,000  Level FlightAware
07:48PM 40.5360 -95.5900 87° East 469 540 35,000  Level FlightAware
07:49PM 40.5420 -95.4600 86° East 469 540 35,000  Level FlightAware
07:50PM 40.5480 -95.3210 87° East 469 540 35,000  Level FlightAware
07:51PM 40.5550 -95.1520 87° East 473 544 35,000  Level FlightAware
07:52PM 40.5620 -94.9840 87° East 475 547 35,000 60 Level FlightAware
07:52PM 40.5650 -94.8980 87° East 475 547 35,100  Climbing FlightAware
07:53PM 40.5710 -94.7310 87° East 474 545 35,000 -60 Descending FlightAware
07:54PM 40.5770 -94.5690 87° East 474 545 35,000  Level FlightAware
07:55PM 40.5820 -94.4320 87° East 473 544 35,000  Level FlightAware
07:56PM 40.5870 -94.2860 87° East 473 544 35,000  Level FlightAware
07:56PM 40.5890 -94.2110 88° East 473 544 35,000  Level FlightAware
07:57PM 40.5950 -94.0360 87° East 473 544 35,000  Level FlightAware
07:58PM 40.6000 -93.9550 85° East 464 534 35,000  Level FlightAware
07:59PM 40.6180 -93.8240 80° East 460 529 35,000  Level FlightAware
07:59PM 40.6240 -93.7870 78° East 461 531 35,000  Level FlightAware
08:00PM 40.6490 -93.6120 79° East 464 534 35,000  Level FlightAware
08:01PM 40.6720 -93.4560 79° East 465 535 35,000  Level FlightAware
08:02PM 40.6950 -93.2930 79° East 469 540 35,000  Level FlightAware
08:03PM 40.7160 -93.1480 79° East 472 543 35,000  Level FlightAware
08:04PM 40.7360 -93.0000 80° East 474 545 35,000  Level FlightAware
08:04PM 40.7570 -92.8530 79° East 476 548 35,000  Level FlightAware
08:05PM 40.7800 -92.6870 80° East 476 548 35,000  Level FlightAware
08:06PM 40.8000 -92.5370 80° East 478 550 35,000  Level FlightAware
08:07PM 40.8170 -92.4150 80° East 478 550 35,000  Level FlightAware
08:08PM 40.8330 -92.2920 80° East 479 551 35,000  Level FlightAware
08:09PM 40.8530 -92.1410 80° East 480 552 35,000  Level FlightAware
08:09PM 40.8710 -92.0010 80° East 483 556 35,000  Level FlightAware
08:10PM 40.8890 -91.8690 80° East 484 557 35,000  Level FlightAware
08:11PM 40.9090 -91.7090 81° East 481 554 35,100 60 Climbing FlightAware
08:12PM 40.9210 -91.6130 81° East 480 552 35,100 -120 Level FlightAware
08:12PM 40.9330 -91.5220 80° East 479 551 35,000 -120 Descending FlightAware
08:13PM 40.9470 -91.4080 81° East 480 552 35,000  Level FlightAware
08:14PM 40.9680 -91.2420 80° East 481 554 35,000  Level FlightAware
08:14PM 40.9840 -91.1150 80° East 481 554 35,000  Level FlightAware
08:15PM 41.0030 -90.9530 81° East 481 554 35,000  Level FlightAware
08:16PM 41.0170 -90.8360 81° East 478 550 35,000  Level FlightAware
08:17PM 41.0360 -90.6780 81° East 478 550 35,000  Level FlightAware
08:18PM 41.0530 -90.5380 81° East 479 551 35,000  Level FlightAware
08:19PM 41.0710 -90.3770 82° East 480 552 35,000  Level FlightAware
08:19PM 41.0870 -90.2460 81° East 482 555 35,000  Level FlightAware
08:20PM 41.1070 -90.0700 81° East 484 557 35,000  Level FlightAware
08:21PM 41.1230 -89.9230 82° East 484 557 35,100  Climbing FlightAware
08:22PM 41.1430 -89.7380 82° East 483 556 35,000 -60 Descending FlightAware
08:23PM 41.1600 -89.5670 82° East 488 562 35,000  Level FlightAware
08:24PM 41.1620 -89.4270 89° East 489 563 35,000  Level FlightAware
08:25PM 41.1640 -89.2440 89° East 488 562 35,000  Level FlightAware
08:26PM 41.1650 -89.0740 89° East 487 560 35,000  Level FlightAware
08:27PM 41.1670 -88.9040 89° East 488 562 35,000  Level FlightAware
08:28PM 41.1680 -88.7410 89° East 489 563 35,000  Level FlightAware
08:29PM 41.1690 -88.5760 89° East 490 564 35,000  Level FlightAware
08:29PM 41.1690 -88.4890 90° East 489 563 35,000  Level FlightAware
08:30PM 41.1700 -88.3270 89° East 488 562 35,000  Level FlightAware
08:31PM 41.1700 -88.1420 90° East 489 563 35,000  Level FlightAware
08:32PM 41.1700 -87.9800 90° East 489 563 35,000  Level FlightAware
08:33PM 41.1700 -87.8040 90° East 490 564 35,000  Level FlightAware
08:34PM 41.1690 -87.6760 91° East 491 565 35,000  Level FlightAware
08:35PM 41.1690 -87.5400 90° East 489 563 35,000  Level FlightAware
08:36PM 41.1680 -87.3420 90° East 488 562 35,000  Level FlightAware
08:36PM 41.1670 -87.2020 90° East 489 563 35,000  Level FlightAware
08:37PM 41.1660 -87.0720 91° East 489 563 35,000  Level FlightAware
08:38PM 41.1640 -86.9400 91° East 489 563 35,000  Level FlightAware
08:39PM 41.1630 -86.8060 91° East 489 563 35,000  Level FlightAware
08:39PM 41.1620 -86.7160 91° East 490 564 35,000  Level FlightAware
08:40PM 41.1450 -86.5270 97° East 495 570 35,000  Level FlightAware
08:41PM 41.1290 -86.4490 105° East 496 571 35,000  Level FlightAware
08:41PM 41.1100 -86.3700 108° East 497 572 35,000  Level FlightAware
08:42PM 41.0750 -86.2210 107° East 495 570 35,000  Level FlightAware
08:43PM 41.0430 -86.0860 107° East 494 568 35,000  Level FlightAware
08:43PM 41.0150 -85.9640 107° East 494 568 35,000  Level FlightAware
08:44PM 40.9900 -85.8610 108° East 494 568 35,000  Level FlightAware
08:45PM 40.9600 -85.7360 108° East 495 570 35,000  Level FlightAware
08:46PM 40.9160 -85.5550 108° East 495 570 35,000  Level FlightAware
08:46PM 40.8980 -85.4790 107° East 495 570 35,000  Level FlightAware
08:47PM 40.8590 -85.3190 108° East 494 568 35,000  Level FlightAware
08:48PM 40.8210 -85.1640 108° East 495 570 35,000  Level FlightAware
08:49PM 40.7860 -85.0230 108° East 494 568 35,000  Level FlightAware
08:50PM 40.7510 -84.8810 108° East 494 568 35,000  Level FlightAware
08:50PM 40.7240 -84.7750 109° East 494 568 35,000  Level FlightAware
08:51PM 40.7040 -84.6920 108° East 495 570 35,000  Level FlightAware
08:52PM 40.6580 -84.5110 108° East 495 570 35,000  Level FlightAware
08:52PM 40.6340 -84.4180 109° East 496 571 35,000  Level FlightAware
08:53PM 40.6090 -84.3210 109° East 496 571 35,000  Level FlightAware
08:54PM 40.5760 -84.1920 109° East 497 572 35,000  Level FlightAware
08:54PM 40.5500 -84.0870 108° East 498 573 35,000  Level FlightAware
08:55PM 40.5120 -83.9440 109° East 497 572 35,000  Level FlightAware
08:56PM 40.4810 -83.8220 108° East 497 572 35,000  Level FlightAware
08:57PM 40.4380 -83.6580 109° East 496 571 35,000  Level FlightAware
08:57PM 40.4170 -83.5770 109° East 496 571 35,000  Level FlightAware
08:58PM 40.3880 -83.4700 110° East 497 572 35,000  Level FlightAware
08:59PM 40.3490 -83.3230 109° East 497 572 35,000  Level FlightAware
09:00PM 40.3090 -83.1710 109° East 499 574 35,000  Level FlightAware
09:00PM 40.2770 -83.0510 109° East 499 574 35,000  Level FlightAware
09:01PM 40.2470 -82.9410 110° East 499 574 35,000  Level FlightAware
09:02PM 40.2050 -82.7840 109° East 499 574 35,000  Level FlightAware
09:03PM 40.1600 -82.6230 110° East 513 590 35,000  Level FlightAware
09:04PM 40.1180 -82.4760 110° East 524 603 35,000  Level FlightAware
09:05PM 40.0680 -82.3070 111° Southeast 523 602 35,000  Level FlightAware
09:06PM 40.0220 -82.1530 111° Southeast 522 601 35,000  Level FlightAware
09:07PM 39.9740 -81.9840 110° East 523 602 35,000  Level FlightAware
09:07PM 39.9490 -81.8820 108° East 524 603 35,000  Level FlightAware
09:08PM 39.9250 -81.7900 109° East 525 604 35,000  Level FlightAware
09:08PM 39.8980 -81.6820 108° East 526 605 35,000  Level FlightAware
09:09PM 39.8710 -81.5760 108° East 527 606 35,000  Level FlightAware
09:09PM 39.8470 -81.4830 109° East 528 608 35,000  Level FlightAware
09:10PM 39.8060 -81.3220 108° East 531 611 35,000  Level FlightAware
09:11PM 39.7660 -81.1660 108° East 532 612 35,000  Level FlightAware
09:12PM 39.7400 -81.0660 109° East 534 615 35,000  Level FlightAware
09:12PM 39.7150 -80.9680 108° East 536 617 35,000  Level FlightAware
09:13PM 39.6710 -80.7990 109° East 537 618 35,000  Level FlightAware
09:14PM 39.6500 -80.7170 108° East 540 621 35,000  Level FlightAware
09:15PM 39.6010 -80.5320 109° East 539 620 35,000  Level FlightAware
09:16PM 39.5520 -80.3500 109° East 539 620 35,000  Level FlightAware
09:16PM 39.5080 -80.1870 109° East 540 621 35,000  Level FlightAware
09:17PM 39.4680 -80.0390 109° East 540 621 35,000 -240 Level FlightAware
09:18PM 39.4390 -79.9340 110° East 542 624 34,700 -2,280 Descending FlightAware
09:19PM 39.3990 -79.7850 109° East 552 635 31,900 -2,820 Descending FlightAware
09:20PM 39.3470 -79.5990 110° East 537 618 29,600 -2,220 Descending FlightAware
09:21PM 39.3000 -79.4270 109° East 516 594 27,600 -1,980 Descending FlightAware
09:21PM 39.2760 -79.3430 110° East 500 575 26,800 -1,800 Descending FlightAware
09:22PM 39.2440 -79.2010 106° East 492 566 25,200 -1,800 Descending FlightAware
09:23PM 39.2290 -79.0300 96° East 469 540 23,500 -1,680 Descending FlightAware
09:24PM 39.2180 -78.9120 97° East 445 512 22,300 -1,620 Descending FlightAware
09:25PM 39.2050 -78.7730 97° East 431 496 20,900 -1,620 Descending FlightAware
09:25PM 39.1970 -78.6940 97° East 423 487 20,100 -1,500 Descending FlightAware
09:26PM 39.1850 -78.5740 97° East 409 471 18,900 -1,440 Descending FlightAware
09:27PM 39.1720 -78.4410 97° East 399 459 17,600 -1,500 Descending FlightAware
09:28PM 39.1600 -78.3490 100° East 384 442 16,600 -1,380 Descending FlightAware
09:28PM 39.1340 -78.2440 108° East 378 435 15,600 -1,200 Descending FlightAware
09:29PM 39.1050 -78.1270 108° East 367 422 14,500 -1,200 Descending FlightAware
09:30PM 39.0750 -78.0080 108° East 363 418 13,300 -1,200 Descending FlightAware
09:31PM 39.0470 -77.9000 108° East 346 398 12,300 -1,140 Descending FlightAware
09:32PM 39.0190 -77.7910 108° East 345 397 11,200 -1,140 Descending FlightAware
09:33PM 38.9980 -77.7100 108° East 327 376 10,400 -1,080 Descending FlightAware
09:33PM 38.9810 -77.6470 109° East 313 360 9,800 -1,020 Descending FlightAware
09:34PM 38.9660 -77.6040 114° Southeast 302 348 9,400 -1,020 Descending FlightAware
09:34PM 38.9530 -77.5660 114° Southeast 299 344 9,000 -1,020 Descending FlightAware
09:35PM 38.9400 -77.5290 114° Southeast 297 342 8,600 -1,020 Descending FlightAware
09:35PM 38.9190 -77.4700 115° Southeast 295 339 8,000 -1,020 Descending FlightAware
09:36PM 38.9040 -77.4330 118° Southeast 296 341 7,600 -1,200 Descending FlightAware
09:36PM 38.8820 -77.3830 119° Southeast 290 334 6,900 -1,320 Descending FlightAware
09:37PM 38.8650 -77.3440 119° Southeast 290 334 6,300 -1,140 Descending FlightAware
09:37PM 38.8470 -77.3020 119° Southeast 290 334 5,900 -840 Descending FlightAware
09:37PM 38.8400 -77.2850 118° Southeast 295 339 5,800 -420 Descending FlightAware
09:38PM 38.8180 -77.2380 121° Southeast 285 328 5,600 -540 Descending FlightAware
09:38PM 38.8000 -77.1980 120° Southeast 267 307 5,300 -720 Descending FlightAware
09:39PM 38.7830 -77.1590 119° Southeast 248 285 5,000 -720 Descending FlightAware
09:39PM 38.7710 -77.1330 121° Southeast 229 264 4,700 -1,140 Descending FlightAware
09:39PM 38.7550 -77.1150 139° Southeast 212 244 4,200 -1,140 Descending FlightAware
09:40PM 38.7350 -77.1120 173° South 204 235 3,900 -420 Descending FlightAware
09:40PM 38.7010 -77.1100 177° South 208 239 3,800 -240 Descending FlightAware
09:41PM 38.6750 -77.1090 178° South 201 231 3,700 -480 Descending FlightAware
09:41PM 38.6510 -77.1070 176° South 181 208 3,400 -780 Descending FlightAware
09:42PM 38.6290 -77.0830 140° Southeast 196 226 2,900 -540 Descending FlightAware
09:42PM 38.6370 -77.0510 72° East 187 215 2,800 -120 Descending FlightAware
09:43PM 38.6600 -77.0290 37° Northeast 178 205 2,800  Level FlightAware
09:43PM 38.6720 -77.0240 18° North 174 200 2,800 -240 Level FlightAware
09:44PM 38.7060 -77.0230 North 164 189 2,600 -600 Descending FlightAware
09:44PM 38.7290 -77.0260 354° North 158 182 2,100 -1,020 Descending FlightAware
09:45PM 38.7470 -77.0270 358° North 152 175 1,700 -960 Descending FlightAware
09:45PM 38.7600 -77.0300 350° North 147 169 1,400 -900 Descending FlightAware
09:45PM 38.7700 -77.0320 351° North 143 165 1,200 -720 Descending FlightAware
09:46PM 38.7890 -77.0300 North 127 146 900 -660 Descending FlightAware
09:46PM 38.8020 -77.0320 353° North 125 144 600 -600 Descending FlightAware
09:47PM 38.8170 -77.0340 354° North 127 146 400 -240 Descending FlightAware
09:47PM 38.8300 -77.0360 353° North 127 146 400  Level FlightAware